createdAt,value
2022-11-21T00:02:01.854Z,100601.97
2022-11-21T00:07:03.408Z,100614.59
2022-11-21T00:12:05.106Z,100605.56
2022-11-21T00:17:06.643Z,100617.25
2022-11-21T00:22:08.207Z,100606.66
2022-11-21T00:27:09.732Z,100612.91
2022-11-21T00:32:11.265Z,100593.75
2022-11-21T00:37:12.827Z,100612.38
2022-11-21T00:42:36.204Z,100607.34
2022-11-21T00:47:37.756Z,100620.59
2022-11-21T00:52:39.279Z,100622.47
2022-11-21T00:57:40.879Z,100632.38
2022-11-21T01:02:42.367Z,100626.50
2022-11-21T01:07:43.858Z,100626.16
2022-11-21T01:12:45.727Z,100638.13
2022-11-21T01:17:47.306Z,100609.28
2022-11-21T01:22:48.912Z,100618.41
2022-11-21T01:27:50.422Z,100615.84
2022-11-21T01:32:52.364Z,100612.31
2022-11-21T01:37:55.941Z,100605.31
2022-11-21T01:43:14.780Z,100587.47
2022-11-21T01:48:16.555Z,100571.16
2022-11-21T01:53:18.683Z,100562.59
2022-11-21T01:58:21.774Z,100567.22
2022-11-21T02:03:27.365Z,100547.38
2022-11-21T02:08:32.622Z,100556.56
2022-11-21T02:13:34.102Z,100554.22
2022-11-21T02:18:38.449Z,100557.53
2022-11-21T02:23:43.271Z,100559.97
2022-11-21T02:28:45.140Z,100565.66
2022-11-21T02:33:46.702Z,100567.22
2022-11-21T02:38:48.177Z,100576.28
2022-11-21T02:43:57.424Z,100574.69
2022-11-21T02:48:59.221Z,100579.09
2022-11-21T02:54:00.722Z,100575.78
2022-11-21T02:59:02.537Z,100581.69
2022-11-21T03:04:04.126Z,100574.88
2022-11-21T03:09:05.702Z,100566.22
2022-11-21T03:14:07.190Z,100554.09
2022-11-21T03:19:08.662Z,100543.84
2022-11-21T03:24:10.330Z,100534.78
2022-11-21T03:29:11.793Z,100532.22
2022-11-21T03:34:16.218Z,100521.31
2022-11-21T03:39:17.721Z,100525.56
2022-11-21T03:44:21.371Z,100523.66
2022-11-21T03:49:22.852Z,100527.19
2022-11-21T03:54:24.353Z,100524.94
2022-11-21T03:59:26.256Z,100523.97
2022-11-21T04:04:27.951Z,100529.47
2022-11-21T04:09:29.617Z,100529.25
2022-11-21T04:14:31.104Z,100530.56
2022-11-21T04:19:32.627Z,100533.00
2022-11-21T04:24:34.168Z,100520.63
2022-11-21T04:29:35.714Z,100508.03
2022-11-21T04:34:41.046Z,100504.22
2022-11-21T04:39:42.624Z,100484.53
2022-11-21T04:44:44.134Z,100490.03
2022-11-21T04:49:45.619Z,100494.56
2022-11-21T04:54:48.085Z,100481.34
2022-11-21T04:59:49.555Z,100477.31
2022-11-21T05:04:51.119Z,100469.00
2022-11-21T05:09:54.022Z,100462.16
2022-11-21T05:14:56.238Z,100450.78
2022-11-21T05:19:57.775Z,100447.59
2022-11-21T05:25:01.093Z,100451.53
2022-11-21T05:30:02.687Z,100450.78
2022-11-21T05:35:04.434Z,100443.94
2022-11-21T05:40:06.741Z,100449.22
2022-11-21T05:45:08.971Z,100444.44
2022-11-21T05:50:10.521Z,100442.84
2022-11-21T05:55:12.069Z,100446.41
2022-11-21T06:00:17.001Z,100429.19
2022-11-21T06:05:21.440Z,100432.59
2022-11-21T06:10:23.119Z,100430.41
2022-11-21T06:15:24.629Z,100416.59
2022-11-21T06:20:26.267Z,100418.03
2022-11-21T06:25:27.751Z,100411.78
2022-11-21T06:30:29.288Z,100400.91
2022-11-21T06:35:30.838Z,100408.84
2022-11-21T06:40:32.487Z,100408.25
2022-11-21T06:45:34.098Z,100416.31
2022-11-21T06:50:35.718Z,100408.97
2022-11-21T06:55:40.089Z,100414.00
2022-11-21T07:00:41.647Z,100401.03
2022-11-21T07:05:43.285Z,100408.84
2022-11-21T07:11:03.507Z,100403.25
2022-11-21T07:16:09.967Z,100400.06
2022-11-21T07:21:12.750Z,100399.44
2022-11-21T07:26:15.711Z,100401.63
2022-11-21T07:31:17.280Z,100383.66
2022-11-21T07:36:18.894Z,100386.50
2022-11-21T07:41:20.365Z,100379.91
2022-11-21T07:46:21.820Z,100376.72
2022-11-21T07:51:23.297Z,100363.03
2022-11-21T07:56:26.681Z,100365.72
2022-11-21T08:01:28.880Z,100361.94
2022-11-21T08:06:30.404Z,100355.22
2022-11-21T08:11:32.396Z,100357.31
2022-11-21T08:16:36.027Z,100341.28
2022-11-21T08:21:37.538Z,100337.97
2022-11-21T08:26:39.106Z,100332.94
2022-11-21T08:31:41.116Z,100332.47
2022-11-21T08:36:42.673Z,100342.25
2022-11-21T08:42:09.152Z,100326.59
2022-11-21T08:47:10.700Z,100303.72
2022-11-21T08:52:13.405Z,100300.78
2022-11-21T08:57:14.884Z,100304.22
2022-11-21T09:02:16.440Z,100291.44
2022-11-21T09:07:18.008Z,100277.13
2022-11-21T09:12:19.552Z,100271.88
2022-11-21T09:17:42.652Z,100281.63
2022-11-21T09:22:44.130Z,100281.41
2022-11-21T09:27:46.885Z,100275.09
2022-11-21T09:39:35.701Z,100236.44
2022-11-21T09:44:52.926Z,100212.31
2022-11-21T09:50:31.804Z,100198.22
2022-11-21T09:55:50.122Z,100201.41
2022-11-21T10:00:53.260Z,100199.94
2022-11-21T10:05:59.316Z,100184.13
2022-11-21T10:11:20.210Z,100181.72
2022-11-21T10:16:40.741Z,100185.56
2022-11-21T10:22:05.842Z,100186.72
2022-11-21T10:27:37.435Z,100181.16
2022-11-21T10:32:54.900Z,100178.66
2022-11-21T10:37:59.896Z,100175.16
2022-11-21T10:43:28.927Z,100169.09
2022-11-21T10:48:30.412Z,100174.88
2022-11-21T10:53:50.502Z,100159.84
2022-11-21T10:58:59.350Z,100153.63
2022-11-21T11:09:33.588Z,100132.56
2022-11-21T11:14:35.149Z,100120.16
2022-11-21T11:19:40.415Z,100111.34
2022-11-21T11:24:56.243Z,100104.50
2022-11-21T11:30:07.349Z,100108.31
2022-11-21T11:35:23.123Z,100088.38
2022-11-21T11:40:35.792Z,100091.00
2022-11-21T11:46:20.789Z,100076.34
2022-11-21T11:51:28.160Z,100058.41
2022-11-21T11:56:37.270Z,100044.72
2022-11-21T12:01:45.238Z,100034.09
2022-11-21T12:12:37.695Z,100017.81
2022-11-21T12:17:51.182Z,100010.25
2022-11-21T12:22:55.751Z,99992.91
2022-11-21T12:27:57.459Z,99981.47
2022-11-21T12:33:12.920Z,99971.09
2022-11-21T12:38:45.050Z,99976.84
2022-11-21T12:43:57.361Z,99957.88
2022-11-21T12:49:41.734Z,99954.97
2022-11-21T12:54:58.331Z,99943.09
2022-11-21T13:00:12.083Z,99929.84
2022-11-21T13:05:21.479Z,99923.19
2022-11-21T13:10:23.155Z,99905.19
2022-11-21T13:15:31.752Z,99874.63
2022-11-21T13:20:41.635Z,99887.44
2022-11-21T13:25:47.442Z,99876.94
2022-11-21T13:30:56.813Z,99863.88
2022-11-21T13:35:58.318Z,99864.25
2022-11-21T13:41:18.696Z,99819.81
2022-11-21T13:46:59.410Z,99836.88
2022-11-21T13:52:11.332Z,99802.91
2022-11-21T13:57:52.098Z,99784.75
2022-11-21T14:03:24.177Z,99806.19
2022-11-21T14:08:29.002Z,99784.00
2022-11-21T14:13:38.743Z,99776.94
2022-11-21T14:18:44.250Z,99742.63
2022-11-21T14:23:47.155Z,99746.16
2022-11-21T14:28:48.862Z,99758.88
2022-11-21T14:33:58.382Z,99740.69
2022-11-21T14:39:35.512Z,99741.63
2022-11-21T14:44:28.190Z,99751.28
2022-11-21T14:49:29.917Z,99747.66
2022-11-21T15:06:08.339Z,99706.66
2022-11-21T15:11:10.723Z,99701.03
2022-11-21T15:16:12.627Z,99700.28
2022-11-21T15:21:16.373Z,99675.06
2022-11-21T15:26:33.937Z,99696.22
2022-11-21T15:31:37.462Z,99696.34
2022-11-21T15:36:39.138Z,99680.38
2022-11-21T15:41:40.892Z,99679.84
2022-11-21T15:46:42.515Z,99673.97
2022-11-21T15:57:11.529Z,99643.00
2022-11-21T16:02:14.468Z,99655.63
2022-11-21T16:07:16.079Z,99602.06
2022-11-21T16:12:17.620Z,99595.72
2022-11-21T16:17:19.349Z,99584.38
2022-11-21T16:22:21.017Z,99565.22
2022-11-21T16:27:22.584Z,99584.91
2022-11-21T16:32:27.166Z,99571.94
2022-11-21T16:37:31.544Z,99582.50
2022-11-21T16:42:33.030Z,99581.03
2022-11-21T16:47:36.666Z,99574.56
2022-11-21T16:52:38.216Z,99557.09
2022-11-21T16:57:39.696Z,99554.88
2022-11-21T17:02:41.226Z,99550.81
2022-11-21T17:07:42.920Z,99541.91
2022-11-21T17:12:44.531Z,99529.09
2022-11-21T17:17:46.064Z,99523.38
2022-11-21T17:22:47.587Z,99524.66
2022-11-21T17:27:49.112Z,99498.50
2022-11-21T17:32:50.684Z,99484.19
2022-11-21T17:37:52.204Z,99489.94
2022-11-21T17:42:53.662Z,99482.81
2022-11-21T17:47:55.145Z,99474.03
2022-11-21T17:52:57.175Z,99474.34
2022-11-21T17:57:58.677Z,99466.56
2022-11-21T18:03:00.190Z,99455.13
2022-11-21T18:08:01.690Z,99442.44
2022-11-21T18:13:03.181Z,99438.25
2022-11-21T18:18:04.806Z,99428.13
2022-11-21T18:23:06.272Z,99419.66
2022-11-21T18:28:07.816Z,99416.25
2022-11-21T18:33:10.166Z,99409.84
2022-11-21T18:38:32.983Z,99402.78
2022-11-21T18:43:35.479Z,99392.78
2022-11-21T18:49:00.939Z,99383.53
2022-11-21T18:54:03.228Z,99363.91
2022-11-21T18:59:08.313Z,99356.78
2022-11-21T19:04:09.875Z,99359.84
2022-11-21T19:09:11.718Z,99356.63
2022-11-21T19:14:13.442Z,99342.63
2022-11-21T19:24:36.832Z,99327.06
2022-11-21T19:29:39.743Z,99329.44
2022-11-21T19:34:41.305Z,99316.63
2022-11-21T19:39:42.906Z,99300.06
2022-11-21T19:44:44.393Z,99301.06
2022-11-21T19:49:45.918Z,99292.81
2022-11-21T19:54:47.430Z,99283.84
2022-11-21T19:59:48.942Z,99286.56
2022-11-21T20:04:50.456Z,99281.13
2022-11-21T20:09:52.056Z,99273.53
2022-11-21T20:14:54.133Z,99264.59
2022-11-21T20:19:57.829Z,99252.59
2022-11-21T20:24:59.272Z,99254.78
2022-11-21T20:30:00.772Z,99253.09
2022-11-21T20:35:02.401Z,99253.09
2022-11-21T20:40:04.076Z,99242.78
2022-11-21T20:51:05.726Z,99223.53
2022-11-21T20:55:49.691Z,99233.16
2022-11-21T21:00:51.269Z,99222.69
2022-11-21T21:06:06.602Z,99228.25
2022-11-21T21:11:36.792Z,99223.69
2022-11-21T21:16:36.437Z,99217.13
2022-11-21T21:21:38.074Z,99216.47
2022-11-21T21:26:45.430Z,99215.59
2022-11-21T21:31:51.582Z,99212.53
2022-11-21T21:36:56.580Z,99218.63
2022-11-21T21:42:00.968Z,99214.41
2022-11-21T21:47:05.211Z,99212.06
2022-11-21T21:52:07.181Z,99204.63
2022-11-21T21:57:11.881Z,99194.16
2022-11-21T22:02:16.217Z,99195.50
2022-11-21T22:07:20.469Z,99193.47
2022-11-21T22:12:24.733Z,99189.91
2022-11-21T22:17:26.263Z,99175.25
2022-11-21T22:22:27.830Z,99167.63
2022-11-21T22:27:31.544Z,99148.53
2022-11-21T22:32:33.023Z,99149.75
2022-11-21T22:37:34.516Z,99140.63
2022-11-21T22:42:35.957Z,99138.63
2022-11-21T22:47:37.432Z,99133.16
2022-11-21T22:52:38.937Z,99118.94
2022-11-21T22:57:40.428Z,99119.97
2022-11-21T23:02:41.941Z,99119.00
2022-11-21T23:07:45.617Z,99108.19
2022-11-21T23:12:47.167Z,99109.53
2022-11-21T23:17:52.558Z,99097.81
2022-11-21T23:22:56.451Z,99091.00
2022-11-21T23:27:57.936Z,99073.81
2022-11-21T23:32:59.521Z,99068.19
2022-11-21T23:38:00.985Z,99060.56
2022-11-21T23:43:03.371Z,99053.94
2022-11-21T23:48:05.069Z,99044.47
2022-11-21T23:53:06.574Z,99036.28
2022-11-21T23:58:08.202Z,99043.53
